< < Back
Terminal Aerodrome Forecast


Current Version              Previous Versions:   1  2  3  4  5  6  7  8  9  

Terminal Aerodrome Forecast

954
FTUS42 KTAE 271720
TAFDHN
TAF
KDHN 271720Z 2718/2818 07006KT P6SM SCT030=



Latest METAR

603
SAUS70 KWBC 280500 RRF
MTRDHN
METAR KDHN 280453Z AUTO 04007KT 10SM CLR 22/16 A3002 RMK AO2 SLP159
T02220156


USA.gov is the U.S. government's official web portal to all federal, state and local government web resources and services.